createdAt,value
2023-09-03T00:00:41.492Z,99703.34
2023-09-03T00:03:09.156Z,99716.66
2023-09-03T00:05:36.549Z,99716.13
2023-09-03T00:08:04.675Z,99709.09
2023-09-03T00:10:36.244Z,99711.72
2023-09-03T00:13:05.009Z,99708.41
2023-09-03T00:15:32.287Z,99706.38
2023-09-03T00:17:59.259Z,99709.38
2023-09-03T00:20:26.483Z,99702.22
2023-09-03T00:22:53.191Z,99691.28
2023-09-03T00:25:19.887Z,99693.44
2023-09-03T00:27:46.616Z,99686.31
2023-09-03T00:30:13.852Z,99682.97
2023-09-03T00:32:40.674Z,99690.34
2023-09-03T00:35:07.639Z,99686.78
2023-09-03T00:37:34.338Z,99686.78
2023-09-03T00:40:01.623Z,99685.59
2023-09-03T00:42:28.400Z,99688.22
2023-09-03T00:44:55.106Z,99692.50
2023-09-03T00:47:22.100Z,99690.44
2023-09-03T00:49:48.858Z,99689.84
2023-09-03T00:52:19.798Z,99695.78
2023-09-03T00:54:46.826Z,99692.59
2023-09-03T00:57:13.662Z,99694.13
2023-09-03T00:59:41.476Z,99695.19
2023-09-03T01:02:10.574Z,99698.03
2023-09-03T01:04:37.375Z,99710.84
2023-09-03T01:07:04.281Z,99710.63
2023-09-03T01:09:31.043Z,99715.47
2023-09-03T01:11:57.695Z,99711.91
2023-09-03T01:14:54.802Z,99706.94
2023-09-03T01:17:32.563Z,99719.50
2023-09-03T01:20:10.374Z,99721.41
2023-09-03T01:22:46.125Z,99716.78
2023-09-03T01:25:24.928Z,99721.19
2023-09-03T01:28:09.389Z,99722.38
2023-09-03T01:30:36.561Z,99729.28
2023-09-03T01:33:03.695Z,99740.78
2023-09-03T01:35:31.770Z,99741.38
2023-09-03T01:37:58.836Z,99734.59
2023-09-03T01:40:25.828Z,99742.31
2023-09-03T01:42:52.586Z,99743.97
2023-09-03T01:45:19.535Z,99741.38
2023-09-03T01:47:50.182Z,99746.13
2023-09-03T01:50:34.685Z,99750.31
2023-09-03T01:53:21.166Z,99749.00
2023-09-03T01:55:56.148Z,99750.19
2023-09-03T01:58:28.001Z,99756.50
2023-09-03T02:00:56.888Z,99764.22
2023-09-03T02:03:27.998Z,99747.59
2023-09-03T02:05:54.813Z,99762.69
2023-09-03T02:08:21.696Z,99767.06
2023-09-03T02:10:48.546Z,99761.97
2023-09-03T02:13:15.261Z,99759.00
2023-09-03T02:15:42.047Z,99764.47
2023-09-03T02:18:08.857Z,99761.75
2023-09-03T02:20:35.613Z,99751.88
2023-09-03T02:23:02.430Z,99755.19
2023-09-03T02:25:29.109Z,99751.88
2023-09-03T02:27:55.838Z,99745.81
2023-09-03T02:30:22.680Z,99756.16
2023-09-03T02:32:49.465Z,99750.31
2023-09-03T02:35:16.172Z,99739.88
2023-09-03T02:37:42.994Z,99752.09
2023-09-03T02:40:10.157Z,99751.03
2023-09-03T02:42:36.883Z,99758.38
2023-09-03T02:45:03.843Z,99763.03
2023-09-03T02:47:30.630Z,99763.84
2023-09-03T02:49:57.412Z,99759.22
2023-09-03T02:52:24.102Z,99760.53
2023-09-03T02:54:50.847Z,99753.50
2023-09-03T02:57:17.574Z,99756.56
2023-09-03T02:59:45.345Z,99767.28
2023-09-03T03:02:12.212Z,99767.84
2023-09-03T03:04:38.935Z,99771.72
2023-09-03T03:07:05.773Z,99770.97
2023-09-03T03:09:32.536Z,99768.56
2023-09-03T03:11:59.238Z,99767.47
2023-09-03T03:14:26.021Z,99765.00
2023-09-03T03:16:52.719Z,99775.63
2023-09-03T03:19:19.495Z,99768.59
2023-09-03T03:21:46.212Z,99763.59
2023-09-03T03:24:14.474Z,99768.69
2023-09-03T03:26:41.224Z,99773.97
2023-09-03T03:29:09.356Z,99766.75
2023-09-03T03:31:36.165Z,99767.44
2023-09-03T03:34:02.934Z,99767.88
2023-09-03T03:36:30.974Z,99762.88
2023-09-03T03:38:57.777Z,99774.00
2023-09-03T03:41:24.531Z,99781.59
2023-09-03T03:43:52.622Z,99783.47
2023-09-03T03:46:21.165Z,99785.38
2023-09-03T03:48:49.822Z,99780.97
2023-09-03T03:51:16.827Z,99787.25
2023-09-03T03:53:45.218Z,99787.25
2023-09-03T03:56:13.581Z,99782.19
2023-09-03T03:58:41.880Z,99778.78
2023-09-03T04:01:13.906Z,99790.31
2023-09-03T04:03:41.256Z,99786.06
2023-09-03T04:06:08.185Z,99795.47
2023-09-03T04:08:37.110Z,99796.28
2023-09-03T04:11:10.065Z,99799.81
2023-09-03T04:13:38.527Z,99806.94
2023-09-03T04:16:16.794Z,99813.00
2023-09-03T04:18:44.913Z,99819.91
2023-09-03T04:21:11.786Z,99815.28
2023-09-03T04:23:39.010Z,99813.59
2023-09-03T04:26:06.421Z,99816.34
2023-09-03T04:28:33.600Z,99825.97
2023-09-03T04:31:02.064Z,99826.19
2023-09-03T04:33:28.996Z,99821.19
2023-09-03T04:36:00.868Z,99821.28
2023-09-03T04:38:28.680Z,99827.19
2023-09-03T04:40:56.633Z,99810.22
2023-09-03T04:43:24.409Z,99809.16
2023-09-03T04:45:53.071Z,99805.16
2023-09-03T04:48:21.240Z,99793.41
2023-09-03T04:50:48.645Z,99776.22
2023-09-03T04:53:15.630Z,99777.19
2023-09-03T04:55:42.994Z,99780.28
2023-09-03T04:58:10.960Z,99779.59
2023-09-03T05:00:37.650Z,99786.63
2023-09-03T05:03:06.372Z,99794.13
2023-09-03T05:05:40.409Z,99785.88
2023-09-03T05:08:07.908Z,99790.19
2023-09-03T05:10:34.685Z,99782.13
2023-09-03T05:13:01.489Z,99775.78
2023-09-03T05:15:28.240Z,99776.75
2023-09-03T05:17:56.039Z,99784.88
2023-09-03T05:20:22.949Z,99783.09
2023-09-03T05:22:49.616Z,99777.66
2023-09-03T05:25:16.393Z,99778.84
2023-09-03T05:27:43.155Z,99781.72
2023-09-03T05:30:21.347Z,99778.19
2023-09-03T05:32:48.396Z,99786.63
2023-09-03T05:35:30.717Z,99794.81
2023-09-03T05:37:57.406Z,99794.59
2023-09-03T05:40:24.177Z,99791.38
2023-09-03T05:42:51.018Z,99784.25
2023-09-03T05:45:17.773Z,99794.34
2023-09-03T05:47:44.475Z,99794.34
2023-09-03T05:50:11.416Z,99797.69
2023-09-03T05:52:38.278Z,99808.59
2023-09-03T05:55:05.680Z,99801.00
2023-09-03T05:57:32.510Z,99799.94
2023-09-03T05:59:59.340Z,99804.34
2023-09-03T06:02:26.832Z,99800.06
2023-09-03T06:04:53.723Z,99794.63
2023-09-03T06:07:20.632Z,99796.88
2023-09-03T06:09:47.494Z,99798.78
2023-09-03T06:12:15.210Z,99799.84
2023-09-03T06:14:42.358Z,99792.47
2023-09-03T06:17:09.251Z,99784.88
2023-09-03T06:19:36.160Z,99788.22
2023-09-03T06:22:03.050Z,99792.59
2023-09-03T06:24:31.092Z,99796.53
2023-09-03T06:26:58.303Z,99797.38
2023-09-03T06:29:25.127Z,99802.59
2023-09-03T06:31:51.879Z,99811.53
2023-09-03T06:34:18.586Z,99808.94
2023-09-03T06:36:45.571Z,99809.56
2023-09-03T06:39:12.456Z,99820.00
2023-09-03T06:41:39.222Z,99815.97
2023-09-03T06:44:06.262Z,99830.13
2023-09-03T06:46:33.201Z,99832.03
2023-09-03T06:48:59.945Z,99835.63
2023-09-03T06:51:27.052Z,99822.16
2023-09-03T06:53:53.940Z,99827.50
2023-09-03T06:56:20.975Z,99815.38
2023-09-03T06:58:48.043Z,99832.50
2023-09-03T07:01:16.131Z,99846.28
2023-09-03T07:03:43.028Z,99844.13
2023-09-03T07:06:09.990Z,99848.06
2023-09-03T07:08:36.722Z,99849.88
2023-09-03T07:11:03.494Z,99863.06
2023-09-03T07:13:30.184Z,99853.31
2023-09-03T07:15:56.865Z,99857.22
2023-09-03T07:18:23.681Z,99842.00
2023-09-03T07:21:04.038Z,99857.34
2023-09-03T07:23:30.709Z,99862.44
2023-09-03T07:26:05.651Z,99861.00
2023-09-03T07:28:34.905Z,99858.53
2023-09-03T07:31:02.155Z,99862.16
2023-09-03T07:33:29.179Z,99860.97
2023-09-03T07:35:58.169Z,99859.16
2023-09-03T07:38:26.574Z,99857.06
2023-09-03T07:40:53.346Z,99869.56
2023-09-03T07:43:20.438Z,99869.88
2023-09-03T07:45:47.472Z,99867.91
2023-09-03T07:48:14.358Z,99872.31
2023-09-03T07:50:41.259Z,99878.25
2023-09-03T07:53:07.972Z,99877.09
2023-09-03T07:55:34.734Z,99869.94
2023-09-03T07:58:01.466Z,99863.09
2023-09-03T08:00:28.717Z,99865.19
2023-09-03T08:02:55.424Z,99860.78
2023-09-03T08:05:22.139Z,99863.53
2023-09-03T08:07:49.247Z,99852.47
2023-09-03T08:10:16.016Z,99855.25
2023-09-03T08:12:42.870Z,99867.47
2023-09-03T08:15:11.853Z,99878.19
2023-09-03T08:17:38.611Z,99881.69
2023-09-03T08:20:06.620Z,99877.72
2023-09-03T08:22:33.619Z,99877.91
2023-09-03T08:25:00.365Z,99868.44
2023-09-03T08:27:27.188Z,99868.59
2023-09-03T08:29:53.903Z,99852.41
2023-09-03T08:32:20.832Z,99862.72
2023-09-03T08:34:47.683Z,99852.94
2023-09-03T08:37:14.561Z,99845.56
2023-09-03T08:39:41.366Z,99839.88
2023-09-03T08:42:09.585Z,99854.44
2023-09-03T08:44:50.789Z,99846.19
2023-09-03T08:47:18.708Z,99842.72
2023-09-03T08:49:46.718Z,99844.59
2023-09-03T08:52:14.872Z,99857.31
2023-09-03T08:54:41.647Z,99852.72
2023-09-03T08:57:10.260Z,99838.50
2023-09-03T08:59:37.265Z,99847.91
2023-09-03T09:02:06.520Z,99858.94
2023-09-03T09:04:33.634Z,99876.84
2023-09-03T09:07:00.861Z,99876.22
2023-09-03T09:09:30.864Z,99883.78
2023-09-03T09:12:19.526Z,99880.38
2023-09-03T09:14:55.196Z,99877.81
2023-09-03T09:17:21.992Z,99888.63
2023-09-03T09:19:48.769Z,99915.78
2023-09-03T09:22:17.231Z,99905.28
2023-09-03T09:24:47.044Z,99904.16
2023-09-03T09:27:19.244Z,99912.31
2023-09-03T09:29:47.078Z,99908.78
2023-09-03T09:32:21.705Z,99911.50
2023-09-03T09:34:48.610Z,99909.66
2023-09-03T09:37:16.296Z,99913.59
2023-09-03T09:39:52.116Z,99916.75
2023-09-03T09:42:21.789Z,99904.88
2023-09-03T09:44:58.538Z,99911.94
2023-09-03T09:47:25.421Z,99908.72
2023-09-03T09:49:52.464Z,99911.59
2023-09-03T09:52:20.313Z,99933.56
2023-09-03T09:54:48.870Z,99920.06
2023-09-03T09:57:17.509Z,99927.50
2023-09-03T09:59:45.428Z,99930.72
2023-09-03T10:02:16.718Z,99928.81
2023-09-03T10:04:47.249Z,99906.09
2023-09-03T10:07:14.607Z,99897.88
2023-09-03T10:09:42.654Z,99898.84
2023-09-03T10:12:11.010Z,99919.84
2023-09-03T10:14:38.420Z,99916.22
2023-09-03T10:17:10.058Z,99914.81
2023-09-03T10:19:56.710Z,99916.03
2023-09-03T10:22:24.876Z,99904.88
2023-09-03T10:24:56.525Z,99905.81
2023-09-03T10:27:28.392Z,99902.91
2023-09-03T10:30:03.023Z,99915.44
2023-09-03T10:32:30.521Z,99928.06
2023-09-03T10:34:58.030Z,99908.34
2023-09-03T10:37:37.977Z,99931.38
2023-09-03T10:40:29.825Z,99924.47
2023-09-03T10:43:20.729Z,99914.28
2023-09-03T10:46:07.407Z,99944.94
2023-09-03T10:48:37.028Z,99926.69
2023-09-03T10:51:04.970Z,99932.09
2023-09-03T10:56:29.364Z,99902.44
2023-09-03T10:58:58.042Z,99903.97
2023-09-03T11:01:33.169Z,99899.53
2023-09-03T11:04:01.023Z,99891.13
2023-09-03T11:06:29.828Z,99881.69
2023-09-03T11:09:03.619Z,99911.81
2023-09-03T11:11:33.169Z,99890.22
2023-09-03T11:14:00.409Z,99927.88
2023-09-03T11:16:37.975Z,99888.88
2023-09-03T11:21:46.972Z,99898.34
2023-09-03T11:24:17.859Z,99901.78
2023-09-03T11:26:44.875Z,99892.34
2023-09-03T11:29:25.793Z,99887.84
2023-09-03T11:31:52.809Z,99908.84
2023-09-03T11:34:23.703Z,99880.84
2023-09-03T11:36:52.037Z,99877.94
2023-09-03T11:39:18.799Z,99886.91
2023-09-03T11:41:46.695Z,99882.56
2023-09-03T11:44:24.807Z,99910.19
2023-09-03T11:47:02.924Z,99913.94
2023-09-03T11:49:29.868Z,99913.59
2023-09-03T11:52:12.969Z,99943.69
2023-09-03T11:54:39.751Z,99883.88
2023-09-03T11:57:08.689Z,99869.47
2023-09-03T11:59:35.862Z,99860.88
2023-09-03T12:02:04.110Z,99854.69
2023-09-03T12:04:33.193Z,99863.75
2023-09-03T12:07:00.654Z,99919.81
2023-09-03T12:09:32.488Z,99850.59
2023-09-03T12:11:59.259Z,99896.66
2023-09-03T12:14:30.045Z,99885.03
2023-09-03T12:16:57.001Z,99863.44
2023-09-03T12:19:23.809Z,99910.03
2023-09-03T12:21:53.738Z,99876.81
2023-09-03T12:24:30.333Z,99834.19
2023-09-03T12:27:07.410Z,99816.16
2023-09-03T12:29:51.704Z,99820.88
2023-09-03T12:32:33.751Z,99791.50
2023-09-03T12:35:00.676Z,99822.16
2023-09-03T12:37:40.847Z,99844.06
2023-09-03T12:40:08.349Z,99805.84
2023-09-03T12:42:35.261Z,99809.13
2023-09-03T12:45:02.012Z,99788.03
2023-09-03T12:47:28.758Z,99804.59
2023-09-03T12:49:56.847Z,99804.31
2023-09-03T12:52:23.851Z,99788.19
2023-09-03T12:54:50.694Z,99769.03
2023-09-03T12:57:17.370Z,99754.50
2023-09-03T12:59:44.080Z,99772.78
2023-09-03T13:02:10.920Z,99735.41
2023-09-03T13:04:37.720Z,99810.47
2023-09-03T13:07:06.378Z,99785.22
2023-09-03T13:09:34.295Z,99777.19
2023-09-03T13:12:01.020Z,99713.13
2023-09-03T13:14:27.763Z,99741.28
2023-09-03T13:16:54.507Z,99769.25
2023-09-03T13:19:21.281Z,99745.66
2023-09-03T13:21:48.226Z,99720.38
2023-09-03T13:24:14.955Z,99730.34
2023-09-03T13:26:41.766Z,99721.44
2023-09-03T13:29:08.578Z,99668.19
2023-09-03T13:31:35.313Z,99709.69
2023-09-03T13:34:02.061Z,99726.28
2023-09-03T13:36:28.773Z,99690.94
2023-09-03T13:38:55.515Z,99706.09
2023-09-03T13:41:24.232Z,99710.50
2023-09-03T13:43:51.617Z,99650.06
2023-09-03T13:46:18.509Z,99675.13
2023-09-03T13:48:45.430Z,99646.34
2023-09-03T13:51:12.498Z,99631.44
2023-09-03T13:53:39.774Z,99672.50
2023-09-03T13:56:08.526Z,99710.00
2023-09-03T13:58:36.199Z,99635.41
2023-09-03T14:01:10.694Z,99677.31
2023-09-03T14:03:37.982Z,99644.84
2023-09-03T14:06:09.284Z,99655.44
2023-09-03T14:08:36.987Z,99647.09
2023-09-03T14:11:03.890Z,99639.84
2023-09-03T14:13:31.264Z,99668.09
2023-09-03T14:15:58.076Z,99673.63
2023-09-03T14:18:26.189Z,99672.00
2023-09-03T14:20:52.941Z,99623.50
2023-09-03T14:23:21.028Z,99625.13
2023-09-03T14:25:48.794Z,99642.59
2023-09-03T14:28:15.608Z,99641.47
2023-09-03T14:30:42.461Z,99642.00
2023-09-03T14:33:09.430Z,99666.66
2023-09-03T14:35:36.232Z,99666.38
2023-09-03T14:38:02.924Z,99681.59
2023-09-03T14:40:29.607Z,99673.78
2023-09-03T14:42:56.296Z,99643.47
2023-09-03T14:45:23.724Z,99673.91
2023-09-03T14:47:50.696Z,99670.63
2023-09-03T14:50:19.113Z,99655.94
2023-09-03T14:52:46.450Z,99661.78
2023-09-03T14:55:14.461Z,99647.59
2023-09-03T14:57:41.690Z,99633.44
2023-09-03T15:00:08.864Z,99655.03
2023-09-03T15:02:36.216Z,99676.63
2023-09-03T15:05:03.436Z,99643.84
2023-09-03T15:07:30.192Z,99661.00
2023-09-03T15:09:57.559Z,99638.81
2023-09-03T15:12:24.585Z,99671.50
2023-09-03T15:14:51.299Z,99624.31
2023-09-03T15:17:17.954Z,99642.63
2023-09-03T15:19:44.740Z,99603.75
2023-09-03T15:22:11.579Z,99631.00
2023-09-03T15:24:38.372Z,99612.69
2023-09-03T15:27:05.280Z,99627.69
2023-09-03T15:29:31.978Z,99637.16
2023-09-03T15:32:01.635Z,99601.38
2023-09-03T15:34:28.564Z,99615.78
2023-09-03T15:36:55.444Z,99606.31
2023-09-03T15:39:22.102Z,99597.19
2023-09-03T15:41:48.827Z,99599.72
2023-09-03T15:44:15.828Z,99594.59
2023-09-03T15:46:42.539Z,99635.75
2023-09-03T15:49:10.288Z,99619.19
2023-09-03T15:51:37.079Z,99601.50
2023-09-03T15:54:04.233Z,99591.25
2023-09-03T15:56:30.915Z,99633.16
2023-09-03T15:58:57.590Z,99621.25
2023-09-03T16:01:25.530Z,99594.09
2023-09-03T16:03:52.417Z,99630.47
2023-09-03T16:06:19.094Z,99639.88
2023-09-03T16:08:45.776Z,99612.75
2023-09-03T16:11:13.943Z,99592.28
2023-09-03T16:13:40.655Z,99604.50
2023-09-03T16:16:10.275Z,99586.22
2023-09-03T16:18:37.098Z,99592.00
2023-09-03T16:21:03.941Z,99609.66
2023-09-03T16:23:30.558Z,99583.88
2023-09-03T16:25:57.269Z,99602.47
2023-09-03T16:28:24.184Z,99580.53
2023-09-03T16:30:51.210Z,99632.94
2023-09-03T16:33:18.166Z,99607.16
2023-09-03T16:35:45.917Z,99569.44
2023-09-03T16:38:12.855Z,99592.22
2023-09-03T16:40:39.599Z,99590.34
2023-09-03T16:43:06.344Z,99598.44
2023-09-03T16:45:33.039Z,99589.06
2023-09-03T16:47:59.811Z,99599.34
2023-09-03T16:50:26.648Z,99576.34
2023-09-03T16:52:53.545Z,99565.84
2023-09-03T16:55:20.238Z,99577.75
2023-09-03T16:57:46.986Z,99573.03
2023-09-03T17:00:14.218Z,99600.78
2023-09-03T17:02:41.120Z,99607.44
2023-09-03T17:05:08.240Z,99611.66
2023-09-03T17:07:36.210Z,99661.34
2023-09-03T17:10:03.158Z,99591.53
2023-09-03T17:12:29.956Z,99585.75
2023-09-03T17:14:57.356Z,99653.72
2023-09-03T17:17:24.167Z,99576.47
2023-09-03T17:19:51.561Z,99595.34
2023-09-03T17:22:18.428Z,99602.31
2023-09-03T17:24:47.137Z,99582.38
2023-09-03T17:27:14.001Z,99578.56
2023-09-03T17:29:40.757Z,99591.91
2023-09-03T17:32:07.568Z,99614.38
2023-09-03T17:34:34.413Z,99619.69
2023-09-03T17:37:04.792Z,99601.97
2023-09-03T17:39:33.377Z,99608.13
2023-09-03T17:42:01.378Z,99614.25
2023-09-03T17:44:30.628Z,99646.69
2023-09-03T17:46:57.534Z,99640.91
2023-09-03T17:49:24.241Z,99601.06
2023-09-03T17:51:50.976Z,99585.03
2023-09-03T17:54:17.644Z,99638.25
2023-09-03T17:56:44.382Z,99594.00
2023-09-03T17:59:12.495Z,99602.91
2023-09-03T18:01:39.281Z,99592.72
2023-09-03T18:04:06.197Z,99580.28
2023-09-03T18:06:32.954Z,99578.94
2023-09-03T18:08:59.620Z,99565.97
2023-09-03T18:11:26.312Z,99616.41
2023-09-03T18:13:52.987Z,99537.88
2023-09-03T18:16:21.141Z,99563.38
2023-09-03T18:18:48.277Z,99586.94
2023-09-03T18:21:18.791Z,99554.00
2023-09-03T18:23:46.432Z,99550.19
2023-09-03T18:26:13.439Z,99551.03
2023-09-03T18:28:40.177Z,99563.53
2023-09-03T18:31:06.942Z,99547.50
2023-09-03T18:33:33.804Z,99560.00
2023-09-03T18:36:00.600Z,99555.88
2023-09-03T18:38:27.573Z,99537.91
2023-09-03T18:40:54.454Z,99542.91
2023-09-03T18:43:21.214Z,99567.88
2023-09-03T18:45:47.998Z,99559.88
2023-09-03T18:48:16.028Z,99545.50
2023-09-03T18:50:42.770Z,99537.78
2023-09-03T18:53:09.628Z,99545.03
2023-09-03T18:55:40.458Z,99540.59
2023-09-03T18:58:07.521Z,99569.69
2023-09-03T19:00:37.432Z,99560.03
2023-09-03T19:03:08.375Z,99574.97
2023-09-03T19:05:39.289Z,99549.84
2023-09-03T19:08:06.057Z,99555.72
2023-09-03T19:10:33.480Z,99565.97
2023-09-03T19:13:05.853Z,99564.00
2023-09-03T19:15:43.102Z,99567.66
2023-09-03T19:18:11.948Z,99555.22
2023-09-03T19:20:40.271Z,99558.00
2023-09-03T19:23:08.290Z,99562.47
2023-09-03T19:25:49.794Z,99569.19
2023-09-03T19:28:19.194Z,99573.66
2023-09-03T19:30:51.236Z,99564.59
2023-09-03T19:33:22.065Z,99551.63
2023-09-03T19:35:57.369Z,99555.00
2023-09-03T19:38:29.092Z,99552.81
2023-09-03T19:40:56.787Z,99544.56
2023-09-03T19:43:26.478Z,99568.38
2023-09-03T19:45:54.587Z,99582.47
2023-09-03T19:48:38.639Z,99634.72
2023-09-03T19:51:05.390Z,99603.19
2023-09-03T19:53:33.175Z,99567.81
2023-09-03T19:56:04.961Z,99577.75
2023-09-03T19:58:35.151Z,99576.63
2023-09-03T20:01:05.875Z,99595.97
2023-09-03T20:03:33.322Z,99589.88
2023-09-03T20:06:00.701Z,99569.13
2023-09-03T20:08:27.947Z,99559.44
2023-09-03T20:10:55.799Z,99565.50
2023-09-03T20:13:22.456Z,99573.78
2023-09-03T20:15:56.802Z,99566.03
2023-09-03T20:18:24.119Z,99636.22
2023-09-03T20:20:52.499Z,99579.22
2023-09-03T20:23:19.343Z,99515.66
2023-09-03T20:25:57.483Z,99539.41
2023-09-03T20:28:31.831Z,99545.78
2023-09-03T20:31:10.827Z,99554.34
2023-09-03T20:33:37.793Z,99558.75
2023-09-03T20:36:05.082Z,99544.41
2023-09-03T20:38:31.888Z,99602.47
2023-09-03T20:40:58.627Z,99605.50
2023-09-03T20:43:28.041Z,99546.09
2023-09-03T20:45:58.468Z,99545.28
2023-09-03T20:48:25.388Z,99529.28
2023-09-03T20:50:53.471Z,99563.56
2023-09-03T20:53:20.136Z,99557.50
2023-09-03T20:55:52.309Z,99528.50
2023-09-03T20:58:19.455Z,99531.25
2023-09-03T21:00:46.640Z,99502.78
2023-09-03T21:03:13.402Z,99501.13
2023-09-03T21:05:40.252Z,99530.72
2023-09-03T21:08:08.049Z,99524.38
2023-09-03T21:10:34.846Z,99491.50
2023-09-03T21:13:01.558Z,99493.13
2023-09-03T21:15:28.199Z,99545.41
2023-09-03T21:17:54.953Z,99521.34
2023-09-03T21:20:21.767Z,99518.06
2023-09-03T21:22:48.553Z,99518.88
2023-09-03T21:25:16.262Z,99510.06
2023-09-03T21:27:42.941Z,99518.06
2023-09-03T21:30:10.045Z,99509.75
2023-09-03T21:32:36.754Z,99486.84
2023-09-03T21:35:13.739Z,99546.50
2023-09-03T21:37:44.983Z,99489.59
2023-09-03T21:40:13.786Z,99524.69
2023-09-03T21:42:40.754Z,99558.97
2023-09-03T21:45:08.243Z,99502.06
2023-09-03T21:47:35.028Z,99522.50
2023-09-03T21:50:01.782Z,99502.06
2023-09-03T21:52:29.710Z,99531.34
2023-09-03T21:54:56.427Z,99508.13
2023-09-03T21:57:23.167Z,99521.94
2023-09-03T21:59:49.893Z,99492.06
2023-09-03T22:02:16.573Z,99521.34
2023-09-03T22:04:43.271Z,99474.38
2023-09-03T22:07:09.923Z,99466.09
2023-09-03T22:09:37.214Z,99466.09
2023-09-03T22:12:04.124Z,99460.56
2023-09-03T22:14:30.923Z,99477.13
2023-09-03T22:16:57.759Z,99470.50
2023-09-03T22:19:26.788Z,99469.38
2023-09-03T22:21:55.193Z,99456.09
2023-09-03T22:24:22.500Z,99445.03
2023-09-03T22:26:49.211Z,99472.69
2023-09-03T22:29:16.018Z,99468.78
2023-09-03T22:31:42.843Z,99465.75
2023-09-03T22:34:09.569Z,99471.50
2023-09-03T22:36:36.292Z,99451.06
2023-09-03T22:39:03.212Z,99446.63
2023-09-03T22:41:29.961Z,99480.34
2023-09-03T22:43:56.710Z,99446.59
2023-09-03T22:46:23.801Z,99530.34
2023-09-03T22:48:51.086Z,99482.47
2023-09-03T22:51:17.877Z,99489.34
2023-09-03T22:53:44.576Z,99438.19
2023-09-03T22:56:11.574Z,99485.72
2023-09-03T22:58:38.729Z,99460.25
2023-09-03T23:01:06.347Z,99480.94
2023-09-03T23:03:33.457Z,99424.22
2023-09-03T23:06:00.384Z,99497.75
2023-09-03T23:08:27.088Z,99472.88
2023-09-03T23:10:53.770Z,99453.50
2023-09-03T23:13:20.636Z,99488.34
2023-09-03T23:15:47.681Z,99446.56
2023-09-03T23:18:14.421Z,99476.69
2023-09-03T23:20:42.724Z,99445.19
2023-09-03T23:23:09.510Z,99439.66
2023-09-03T23:25:36.937Z,99472.56
2023-09-03T23:28:03.917Z,99477.78
2023-09-03T23:30:32.830Z,99457.31
2023-09-03T23:32:59.773Z,99484.69
2023-09-03T23:35:26.518Z,99435.72
2023-09-03T23:37:53.510Z,99431.31
2023-09-03T23:40:20.290Z,99463.69
2023-09-03T23:42:47.133Z,99432.38
2023-09-03T23:45:13.876Z,99430.13
2023-09-03T23:47:42.166Z,99486.81
2023-09-03T23:50:09.325Z,99466.03
2023-09-03T23:52:36.134Z,99460.50
2023-09-03T23:55:02.886Z,99470.75
2023-09-03T23:57:29.632Z,99458.84
2023-09-03T23:59:56.349Z,99485.41
